Time;durP1;ratioP1;P1;durP2;ratioP2;P2;SDS_P1;SDS_P2;PMS_P1;PMS_P2;Temp;Humidity;BMP_temperature;BMP_pressure;BME280_temperature;BME280_humidity;BME280_pressure;Samples;Min_cycle;Max_cycle;Signal;HPM_P1;HPM_P2
2021/03/23 00:01:26;;;;;;;8.63;5.75;;;17.60;99.90;;;;;;5051293;28;20493;-70
2021/03/23 00:03:52;;;;;;;10.65;5.70;;;17.50;99.90;;;;;;5051514;28;20079;-69
2021/03/23 00:06:22;;;;;;;11.00;5.93;;;17.50;99.90;;;;;;5051019;28;20461;-69
2021/03/23 00:08:59;;;;;;;12.75;6.43;;;17.50;99.90;;;;;;5053192;28;20044;-68
2021/03/23 00:11:28;;;;;;;12.68;6.35;;;17.40;99.90;;;;;;5055214;28;20024;-69
2021/03/23 00:13:55;;;;;;;11.48;5.50;;;17.40;99.90;;;;;;5054586;28;20025;-69
2021/03/23 00:16:36;;;;;;;11.30;5.63;;;17.40;99.90;;;;;;5074931;28;20048;-69
2021/03/23 00:19:03;;;;;;;9.32;6.45;;;17.40;99.90;;;;;;5075538;28;20403;-69
2021/03/23 00:21:29;;;;;;;11.85;6.13;;;17.40;99.90;;;;;;5058412;28;20028;-70
2021/03/23 00:23:54;;;;;;;11.32;6.50;;;17.40;99.90;;;;;;5054923;28;20044;-69
2021/03/23 00:26:21;;;;;;;12.07;6.78;;;17.40;99.90;;;;;;5054963;28;20025;-68
2021/03/23 00:28:49;;;;;;;10.75;5.72;;;17.40;99.90;;;;;;5054456;28;20029;-70
2021/03/23 00:31:16;;;;;;;10.32;6.72;;;17.40;99.90;;;;;;5054830;28;20531;-70
2021/03/23 00:33:42;;;;;;;10.40;6.40;;;17.30;99.90;;;;;;5055371;28;20465;-70
2021/03/23 00:36:09;;;;;;;8.35;6.35;;;17.30;99.90;;;;;;5055194;28;20032;-70
2021/03/23 00:38:37;;;;;;;12.85;6.30;;;17.30;99.90;;;;;;5055119;28;20104;-68
2021/03/23 00:41:05;;;;;;;11.52;6.60;;;17.30;99.90;;;;;;5055030;28;20027;-68
2021/03/23 00:43:30;;;;;;;11.10;5.97;;;17.30;99.90;;;;;;5054847;28;20439;-68
2021/03/23 00:45:56;;;;;;;12.52;7.03;;;17.30;99.90;;;;;;5053400;28;20033;-70
2021/03/23 00:48:22;;;;;;;11.13;6.47;;;17.30;99.90;;;;;;5054424;28;20543;-68
2021/03/23 00:50:47;;;;;;;10.05;6.85;;;17.20;99.90;;;;;;5054844;28;20036;-70
2021/03/23 00:53:13;;;;;;;9.88;6.60;;;17.20;99.90;;;;;;5055015;28;20025;-70
2021/03/23 00:55:39;;;;;;;13.15;6.90;;;17.20;99.90;;;;;;5055264;28;20064;-70
2021/03/23 00:58:05;;;;;;;16.05;6.85;;;17.20;99.90;;;;;;5054583;28;20449;-69
2021/03/23 01:00:31;;;;;;;10.60;6.90;;;17.10;99.90;;;;;;5054641;28;20063;-70
2021/03/23 01:02:58;;;;;;;9.20;7.07;;;17.10;99.90;;;;;;5054439;28;20082;-70
2021/03/23 01:05:27;;;;;;;8.98;6.95;;;17.10;99.90;;;;;;5054225;28;20029;-69
2021/03/23 01:07:53;;;;;;;11.00;6.55;;;17.10;99.90;;;;;;5054485;28;20469;-70
2021/03/23 01:10:20;;;;;;;11.98;6.85;;;17.00;99.90;;;;;;5054432;28;20029;-70
2021/03/23 01:12:46;;;;;;;12.80;7.25;;;17.00;99.90;;;;;;5054329;28;20036;-70
2021/03/23 01:15:14;;;;;;;9.10;6.80;;;17.00;99.90;;;;;;5054656;28;20029;-70
2021/03/23 01:17:41;;;;;;;10.90;6.97;;;17.00;99.90;;;;;;5054663;28;20372;-68
2021/03/23 01:20:10;;;;;;;12.10;6.90;;;17.00;99.90;;;;;;5053634;28;20032;-70
2021/03/23 01:22:36;;;;;;;11.10;7.32;;;17.00;99.90;;;;;;5054304;28;20055;-70
2021/03/23 01:25:03;;;;;;;14.25;7.28;;;16.90;99.90;;;;;;5054304;28;20385;-70
2021/03/23 01:27:28;;;;;;;10.38;7.45;;;16.90;99.90;;;;;;5054087;28;20025;-69
2021/03/23 01:29:54;;;;;;;10.50;6.55;;;16.90;99.90;;;;;;5054090;28;20071;-69
2021/03/23 01:32:20;;;;;;;10.07;6.72;;;16.90;99.90;;;;;;5054072;28;20029;-68
2021/03/23 01:34:47;;;;;;;11.45;6.80;;;16.80;99.90;;;;;;5054066;28;20108;-65
2021/03/23 01:37:13;;;;;;;10.18;7.07;;;16.80;99.90;;;;;;5054288;28;20385;-70
2021/03/23 01:39:39;;;;;;;11.30;7.78;;;16.80;99.90;;;;;;5053729;28;20064;-69
2021/03/23 01:42:06;;;;;;;12.10;7.72;;;16.80;99.90;;;;;;5053917;28;20053;-70
2021/03/23 01:44:32;;;;;;;11.10;7.30;;;16.80;99.90;;;;;;5053740;28;20075;-70
2021/03/23 01:46:58;;;;;;;10.45;7.07;;;16.80;99.90;;;;;;5053784;28;20025;-69
2021/03/23 01:49:26;;;;;;;13.75;7.22;;;16.70;99.90;;;;;;5053617;28;20110;-67
2021/03/23 01:51:55;;;;;;;11.27;7.13;;;16.70;99.90;;;;;;5053748;28;20024;-70
2021/03/23 01:54:33;;;;;;;10.80;7.43;;;16.70;99.90;;;;;;5053610;28;20032;-70
2021/03/23 01:57:04;;;;;;;11.25;7.35;;;16.70;99.90;;;;;;5053884;28;20025;-70
2021/03/23 01:59:32;;;;;;;12.32;7.45;;;16.70;99.90;;;;;;5053530;28;20018;-70
2021/03/23 02:02:01;;;;;;;10.30;7.32;;;16.60;99.90;;;;;;5053558;28;20017;-70
2021/03/23 02:04:26;;;;;;;11.52;6.55;;;16.60;99.90;;;;;;5053118;28;20037;-69
2021/03/23 02:06:52;;;;;;;9.25;6.93;;;16.60;99.90;;;;;;5053028;28;20025;-69
2021/03/23 02:09:24;;;;;;;10.90;7.32;;;16.60;99.90;;;;;;5053656;28;20029;-68
2021/03/23 02:11:53;;;;;;;11.23;6.75;;;16.60;99.90;;;;;;5053428;28;20107;-68
2021/03/23 02:14:20;;;;;;;9.88;6.45;;;16.50;99.90;;;;;;5053374;28;20025;-64
2021/03/23 02:16:47;;;;;;;10.90;7.53;;;16.50;99.90;;;;;;5053449;28;20493;-70
2021/03/23 02:19:15;;;;;;;8.77;6.88;;;16.50;99.90;;;;;;5053127;28;20539;-70
2021/03/23 02:21:41;;;;;;;10.45;6.93;;;16.50;99.90;;;;;;5053198;28;20047;-70
2021/03/23 02:24:07;;;;;;;11.38;7.20;;;16.50;99.90;;;;;;5052953;28;20539;-70
2021/03/23 02:26:36;;;;;;;10.73;6.80;;;16.50;99.90;;;;;;5053307;28;20037;-70
2021/03/23 02:29:07;;;;;;;10.43;6.85;;;16.40;99.90;;;;;;5053213;28;20057;-68
2021/03/23 02:31:41;;;;;;;12.23;7.90;;;16.40;99.90;;;;;;5051922;28;20401;-69
2021/03/23 02:34:12;;;;;;;11.15;7.00;;;16.40;99.90;;;;;;5052839;28;20396;-70
2021/03/23 02:36:40;;;;;;;9.85;6.72;;;16.40;99.90;;;;;;5052655;28;20031;-70
2021/03/23 02:39:08;;;;;;;13.23;6.78;;;16.40;99.90;;;;;;5052812;28;20025;-70
2021/03/23 02:41:35;;;;;;;11.60;7.15;;;16.40;99.90;;;;;;5052343;28;20025;-70
2021/03/23 02:44:01;;;;;;;12.43;7.15;;;16.40;99.90;;;;;;5052764;28;20044;-71
2021/03/23 02:46:27;;;;;;;11.13;7.00;;;16.30;99.90;;;;;;5052967;28;20028;-70
2021/03/23 02:48:52;;;;;;;9.77;6.50;;;16.30;99.90;;;;;;5052550;28;20035;-70
2021/03/23 02:51:19;;;;;;;12.23;7.00;;;16.30;99.90;;;;;;5052920;28;20021;-69
2021/03/23 02:53:46;;;;;;;10.82;7.43;;;16.30;99.90;;;;;;5052569;28;20021;-70
2021/03/23 02:56:12;;;;;;;9.77;7.10;;;16.30;99.90;;;;;;5052664;28;20380;-65
2021/03/23 02:58:38;;;;;;;9.55;6.43;;;16.30;99.90;;;;;;5051267;28;20025;-70
2021/03/23 03:01:05;;;;;;;9.43;6.78;;;16.20;99.90;;;;;;5052363;28;20495;-70
2021/03/23 03:03:31;;;;;;;10.88;6.57;;;16.20;99.90;;;;;;5051851;28;20116;-70
2021/03/23 03:05:57;;;;;;;10.13;6.63;;;16.20;99.90;;;;;;5052361;28;20071;-69
2021/03/23 03:08:23;;;;;;;9.32;6.40;;;16.20;99.90;;;;;;5052275;28;20070;-70
2021/03/23 03:10:50;;;;;;;11.25;7.05;;;16.20;99.90;;;;;;5052530;28;20492;-69
2021/03/23 03:13:20;;;;;;;14.40;7.35;;;16.20;99.90;;;;;;5052131;28;20156;-69
2021/03/23 03:15:46;;;;;;;11.63;7.00;;;16.20;99.90;;;;;;5052378;28;20021;-69
2021/03/23 03:18:12;;;;;;;13.23;7.28;;;16.20;99.90;;;;;;5052062;28;20037;-69
2021/03/23 03:20:37;;;;;;;10.55;6.97;;;16.20;99.90;;;;;;5052115;28;20033;-71
2021/03/23 03:23:03;;;;;;;11.13;7.50;;;16.10;99.90;;;;;;5051989;28;20021;-68
2021/03/23 03:25:29;;;;;;;14.13;6.85;;;16.10;99.90;;;;;;5052030;28;20025;-70
2021/03/23 03:27:54;;;;;;;8.88;6.97;;;16.10;99.90;;;;;;5051954;28;20158;-70
2021/03/23 03:30:26;;;;;;;10.95;6.85;;;16.10;99.90;;;;;;5052186;28;20039;-69
2021/03/23 03:32:53;;;;;;;9.95;7.00;;;16.10;99.90;;;;;;5052157;28;20428;-70
2021/03/23 03:35:22;;;;;;;9.93;6.88;;;16.10;99.90;;;;;;5051955;28;20025;-70
2021/03/23 03:37:47;;;;;;;9.52;6.88;;;16.00;99.90;;;;;;5051888;28;20033;-70
2021/03/23 03:40:23;;;;;;;9.80;6.80;;;16.00;99.90;;;;;;5051734;28;20542;-69
2021/03/23 03:42:49;;;;;;;10.40;7.00;;;16.00;99.90;;;;;;5051820;28;20469;-71
2021/03/23 03:45:15;;;;;;;9.07;6.85;;;16.00;99.90;;;;;;5051882;28;20099;-70
2021/03/23 03:47:41;;;;;;;11.13;7.35;;;16.00;99.90;;;;;;5051704;28;20036;-70
2021/03/23 03:50:07;;;;;;;10.88;6.97;;;16.00;99.90;;;;;;5051904;28;20021;-70
2021/03/23 03:52:33;;;;;;;10.13;6.70;;;15.90;99.90;;;;;;5051738;28;20017;-70
2021/03/23 03:54:59;;;;;;;15.45;6.97;;;15.90;99.90;;;;;;5052059;28;20043;-70
2021/03/23 03:57:25;;;;;;;11.15;7.10;;;15.90;99.90;;;;;;5051675;28;20119;-68
2021/03/23 03:59:51;;;;;;;10.88;6.25;;;15.90;99.90;;;;;;5050688;28;20043;-70
2021/03/23 04:02:17;;;;;;;12.68;7.13;;;15.90;99.90;;;;;;5051766;28;20025;-70
2021/03/23 04:04:46;;;;;;;12.93;7.20;;;15.80;99.90;;;;;;5050997;28;20049;-70
2021/03/23 04:07:12;;;;;;;17.50;7.20;;;15.90;99.90;;;;;;5051812;28;20025;-71
2021/03/23 04:09:38;;;;;;;9.70;6.55;;;15.80;99.90;;;;;;5051655;28;20040;-70
2021/03/23 04:12:05;;;;;;;11.63;7.40;;;15.80;99.90;;;;;;5051416;28;20017;-64
2021/03/23 04:14:31;;;;;;;10.02;7.13;;;15.90;99.90;;;;;;5051382;28;20021;-71
2021/03/23 04:16:57;;;;;;;11.20;6.70;;;15.80;99.90;;;;;;5051648;28;20473;-63
2021/03/23 04:19:22;;;;;;;9.35;7.00;;;15.80;99.90;;;;;;5051641;28;20096;-70
2021/03/23 04:21:48;;;;;;;9.65;6.80;;;15.80;99.90;;;;;;5051556;28;20476;-70
2021/03/23 04:24:14;;;;;;;12.80;7.30;;;15.70;99.90;;;;;;5051233;28;20037;-69
2021/03/23 04:26:39;;;;;;;10.93;7.20;;;15.70;99.90;;;;;;5051406;28;20040;-69
2021/03/23 04:29:05;;;;;;;13.18;6.68;;;15.70;99.90;;;;;;5051332;28;20025;-69
2021/03/23 04:31:36;;;;;;;9.40;6.60;;;15.70;99.90;;;;;;5051357;28;20033;-70
2021/03/23 04:34:02;;;;;;;10.85;7.15;;;15.70;99.90;;;;;;5050927;28;20055;-70
2021/03/23 04:36:28;;;;;;;11.50;7.00;;;15.70;99.90;;;;;;5051116;28;20507;-69
2021/03/23 04:38:53;;;;;;;9.73;6.65;;;15.70;99.90;;;;;;5051345;28;20028;-70
2021/03/23 04:41:20;;;;;;;10.38;6.90;;;15.60;99.90;;;;;;5051076;28;20028;-70
2021/03/23 04:43:49;;;;;;;9.18;6.68;;;15.60;99.90;;;;;;5050795;28;20048;-69
2021/03/23 04:46:20;;;;;;;11.70;6.72;;;15.60;99.90;;;;;;5051253;28;20094;-71
2021/03/23 04:48:46;;;;;;;9.95;7.03;;;15.60;99.90;;;;;;5051112;28;20068;-71
2021/03/23 04:51:13;;;;;;;9.25;6.63;;;15.60;99.90;;;;;;5049924;28;20068;-70
2021/03/23 04:53:40;;;;;;;10.68;7.32;;;15.60;99.90;;;;;;5051181;28;20044;-71
2021/03/23 04:56:07;;;;;;;8.98;6.78;;;15.60;99.90;;;;;;5053694;28;20028;-68
2021/03/23 04:58:33;;;;;;;11.38;7.07;;;15.60;99.90;;;;;;5054793;28;20098;-71
2021/03/23 05:01:00;;;;;;;12.82;7.72;;;15.50;99.90;;;;;;5054676;28;20461;-70
2021/03/23 05:03:28;;;;;;;9.65;7.20;;;15.50;99.90;;;;;;5054538;28;20033;-70
2021/03/23 05:05:55;;;;;;;12.43;7.13;;;15.50;99.90;;;;;;5054803;28;20029;-67
2021/03/23 05:08:22;;;;;;;10.10;7.50;;;15.60;99.90;;;;;;5054495;28;20349;-67
2021/03/23 05:10:48;;;;;;;13.15;7.38;;;15.50;99.90;;;;;;5054711;28;20098;-66
2021/03/23 05:13:14;;;;;;;10.18;7.38;;;15.50;99.90;;;;;;5054391;28;20017;-70
2021/03/23 05:15:40;;;;;;;9.90;7.20;;;15.50;99.90;;;;;;5054435;28;20381;-70
2021/03/23 05:18:05;;;;;;;11.02;7.35;;;15.60;99.90;;;;;;5054277;28;20021;-69
2021/03/23 05:20:31;;;;;;;12.00;7.30;;;15.50;99.90;;;;;;5054208;28;20033;-66
2021/03/23 05:22:56;;;;;;;11.30;7.10;;;15.50;99.90;;;;;;5054465;28;20044;-68
2021/03/23 05:25:22;;;;;;;10.65;7.03;;;15.50;99.90;;;;;;5054178;28;20437;-66
2021/03/23 05:27:48;;;;;;;12.48;7.50;;;15.40;99.90;;;;;;5054155;28;20112;-67
2021/03/23 05:30:15;;;;;;;11.23;7.28;;;15.40;99.90;;;;;;5054244;28;20035;-68
2021/03/23 05:32:40;;;;;;;12.10;7.30;;;15.40;99.90;;;;;;5053776;28;20017;-70
2021/03/23 05:35:08;;;;;;;10.93;7.00;;;15.40;99.90;;;;;;5053750;28;20052;-70
2021/03/23 05:37:34;;;;;;;14.43;7.35;;;15.40;99.90;;;;;;5053932;28;20468;-67
2021/03/23 05:39:59;;;;;;;11.82;7.40;;;15.40;99.90;;;;;;5054248;28;20032;-67
2021/03/23 05:42:47;;;;;;;13.73;6.97;;;15.40;99.90;;;;;;5053993;28;20044;-70
2021/03/23 05:45:28;;;;;;;11.73;6.85;;;15.40;99.90;;;;;;5053518;28;20068;-70
2021/03/23 05:48:14;;;;;;;10.60;7.00;;;15.40;99.90;;;;;;5053751;28;20025;-69
2021/03/23 05:50:44;;;;;;;12.45;7.68;;;15.30;99.90;;;;;;5053948;28;20025;-68
2021/03/23 05:53:18;;;;;;;11.80;7.20;;;15.30;99.90;;;;;;5054068;28;20025;-67
2021/03/23 05:55:47;;;;;;;13.50;7.22;;;15.30;99.90;;;;;;5053795;28;20031;-69
2021/03/23 05:58:28;;;;;;;10.25;6.70;;;15.30;99.90;;;;;;5053452;28;20119;-68
2021/03/23 06:01:18;;;;;;;10.77;7.53;;;15.30;99.90;;;;;;5052869;28;20024;-67
2021/03/23 06:03:52;;;;;;;11.88;7.47;;;15.30;99.90;;;;;;5053527;28;20087;-69
2021/03/23 06:06:45;;;;;;;12.70;7.00;;;15.30;99.90;;;;;;5053301;28;20028;-68
2021/03/23 06:09:14;;;;;;;11.35;7.28;;;15.30;99.90;;;;;;5053530;28;20056;-69
2021/03/23 06:11:39;;;;;;;11.38;6.93;;;15.30;99.90;;;;;;5053402;28;20017;-69
2021/03/23 06:14:20;;;;;;;11.98;6.95;;;15.20;99.90;;;;;;5053343;28;20074;-67
2021/03/23 06:17:22;;;;;;;13.05;7.47;;;15.20;99.90;;;;;;5053466;28;20013;-70
2021/03/23 06:20:13;;;;;;;13.70;7.80;;;15.20;99.90;;;;;;5053310;28;20116;-70
2021/03/23 06:23:00;;;;;;;11.73;8.07;;;15.20;99.90;;;;;;5053208;28;20025;-70
2021/03/23 06:25:37;;;;;;;9.98;7.30;;;15.20;99.90;;;;;;5053431;28;20032;-68
2021/03/23 06:28:27;;;;;;;10.40;7.85;;;15.20;99.90;;;;;;5053103;28;20025;-69
2021/03/23 06:31:25;;;;;;;12.05;7.90;;;15.20;99.90;;;;;;5052754;28;20071;-69
2021/03/23 06:33:51;;;;;;;13.98;7.85;;;15.20;99.90;;;;;;5017148;28;20032;-69
2021/03/23 06:36:23;;;;;;;12.45;7.85;;;15.10;99.90;;;;;;5053026;28;20103;-69
2021/03/23 06:38:49;;;;;;;11.15;7.85;;;15.10;99.90;;;;;;5052371;28;20545;-72
2021/03/23 06:41:20;;;;;;;12.75;7.90;;;15.10;99.90;;;;;;5052780;28;20112;-64
2021/03/23 06:43:54;;;;;;;13.63;7.55;;;15.10;99.90;;;;;;5052680;28;20130;-69
2021/03/23 06:46:26;;;;;;;13.63;8.00;;;15.00;99.90;;;;;;5051669;28;20033;-61
2021/03/23 06:49:13;;;;;;;10.70;7.68;;;15.10;99.90;;;;;;5051404;28;20070;-70
2021/03/23 06:52:14;;;;;;;12.88;7.88;;;15.10;99.90;;;;;;5044216;28;20025;-71
2021/03/23 06:54:41;;;;;;;10.95;7.45;;;15.10;99.90;;;;;;5052696;28;20524;-70
2021/03/23 06:57:13;;;;;;;15.10;7.65;;;15.00;99.90;;;;;;5051869;28;20121;-62
2021/03/23 06:59:48;;;;;;;23.58;8.20;;;15.10;99.90;;;;;;5052695;28;20029;-64
2021/03/23 07:02:30;;;;;;;20.52;8.82;;;15.10;99.90;;;;;;5052272;28;20086;-68
2021/03/23 07:05:16;;;;;;;21.65;12.57;;;15.00;99.90;;;;;;5052747;28;20044;-65
2021/03/23 07:07:58;;;;;;;26.58;15.90;;;14.80;99.90;;;;;;5032450;28;20033;-60
2021/03/23 07:10:30;;;;;;;29.98;17.67;;;14.20;99.90;;;;;;5050989;28;20029;-72
2021/03/23 07:12:56;;;;;;;36.20;20.73;;;13.90;99.30;;;;;;5052205;28;20071;-71
2021/03/23 07:15:34;;;;;;;31.65;21.45;;;13.60;99.00;;;;;;5051567;28;20416;-70
2021/03/23 07:18:12;;;;;;;36.10;21.30;;;13.40;99.30;;;;;;5051162;28;20072;-69
2021/03/23 07:20:37;;;;;;;35.15;21.83;;;13.20;98.90;;;;;;5050131;28;20029;-72
2021/03/23 07:23:30;;;;;;;36.53;21.48;;;13.10;98.80;;;;;;5032474;28;20032;-70
2021/03/23 07:25:56;;;;;;;34.83;18.30;;;13.40;99.80;;;;;;5040650;28;20192;-69
2021/03/23 07:28:36;;;;;;;35.40;19.80;;;13.60;99.50;;;;;;5051429;28;20037;-70
2021/03/23 07:31:21;;;;;;;29.77;17.67;;;13.80;99.40;;;;;;5051975;28;20436;-69
2021/03/23 07:34:05;;;;;;;;;;;13.90;99.20;;;;;;5051771;28;20527;-70
2021/03/23 07:36:33;;;;;;;28.13;14.93;;;14.00;99.10;;;;;;5051781;28;19909;-69
2021/03/23 07:39:22;;;;;;;25.60;14.27;;;14.00;99.00;;;;;;5051855;28;20055;-70
2021/03/23 07:41:57;;;;;;;23.45;13.70;;;14.10;99.00;;;;;;5050905;28;20076;-60
2021/03/23 07:44:47;;;;;;;20.30;12.75;;;14.10;98.90;;;;;;5031877;28;20075;-59
2021/03/23 07:47:23;;;;;;;20.13;12.95;;;14.20;98.90;;;;;;5051499;28;20424;-60
2021/03/23 07:50:04;;;;;;;17.95;11.52;;;14.20;98.80;;;;;;5051305;28;20469;-60
2021/03/23 07:53:01;;;;;;;16.10;9.68;;;14.20;98.60;;;;;;5050323;28;20036;-66
2021/03/23 07:55:27;;;;;;;10.32;7.32;;;14.30;98.00;;;;;;5043666;28;20048;-68
2021/03/23 07:58:01;;;;;;;13.40;8.50;;;14.60;97.60;;;;;;5049792;28;20076;-68
2021/03/23 08:00:45;;;;;;;10.57;7.07;;;14.80;97.40;;;;;;5051341;28;20085;-68
2021/03/23 08:03:38;;;;;;;12.95;6.72;;;14.90;97.30;;;;;;5049243;28;20044;-67
2021/03/23 08:06:06;;;;;;;11.93;6.63;;;15.00;97.20;;;;;;5050171;28;20029;-69
2021/03/23 08:09:05;;;;;;;12.48;6.80;;;15.10;97.00;;;;;;5049840;28;20045;-66
2021/03/23 08:11:59;;;;;;;11.95;6.70;;;15.20;96.90;;;;;;5049541;28;20374;-62
2021/03/23 08:14:46;;;;;;;13.98;6.57;;;15.30;97.20;;;;;;5050365;28;20032;-63
2021/03/23 08:17:43;;;;;;;9.85;6.20;;;15.30;97.60;;;;;;5051847;28;20389;-62
2021/03/23 08:20:29;;;;;;;9.82;5.65;;;16.30;97.30;;;;;;5047733;28;20025;-64
2021/03/23 08:23:32;;;;;;;10.65;6.05;;;17.60;95.90;;;;;;5051423;28;20040;-63
2021/03/23 08:26:33;;;;;;;9.30;5.50;;;18.80;94.70;;;;;;5051405;28;20428;-69
2021/03/23 08:29:17;;;;;;;8.85;5.45;;;19.70;93.90;;;;;;5051913;28;20025;-65
2021/03/23 08:32:02;;;;;;;10.15;4.97;;;20.20;93.60;;;;;;5055439;28;20524;-65
2021/03/23 08:34:56;;;;;;;8.23;5.00;;;20.70;93.40;;;;;;5055009;28;20060;-70
2021/03/23 08:37:59;;;;;;;8.32;4.32;;;21.10;93.30;;;;;;5054978;28;20035;-71
2021/03/23 08:40:46;;;;;;;9.15;4.60;;;21.50;93.10;;;;;;5054584;28;20021;-70
2021/03/23 08:43:21;;;;;;;7.47;4.30;;;21.90;93.10;;;;;;5054898;28;20082;-63
2021/03/23 08:45:51;;;;;;;7.97;4.30;;;22.20;93.00;;;;;;5054558;28;20025;-69
2021/03/23 08:48:28;;;;;;;6.10;4.07;;;22.50;92.90;;;;;;5054734;28;20081;-67
2021/03/23 08:51:00;;;;;;;6.90;3.65;;;22.80;92.90;;;;;;5054355;28;20036;-66
2021/03/23 08:53:32;;;;;;;6.40;3.40;;;23.10;92.80;;;;;;5053264;28;20480;-72
2021/03/23 08:56:00;;;;;;;6.22;3.55;;;23.40;92.70;;;;;;5055023;28;20033;-70
2021/03/23 08:58:44;;;;;;;7.05;3.55;;;23.60;92.70;;;;;;5055973;28;20044;-72
2021/03/23 09:01:26;;;;;;;8.27;3.90;;;23.80;92.70;;;;;;5054375;28;20036;-69
2021/03/23 09:04:04;;;;;;;6.43;3.67;;;24.10;92.60;;;;;;5054533;28;20040;-71
2021/03/23 09:06:53;;;;;;;6.80;3.30;;;24.30;92.50;;;;;;5054982;28;20076;-70
2021/03/23 09:09:25;;;;;;;8.35;3.58;;;24.60;92.50;;;;;;5053910;28;20040;-67
2021/03/23 09:12:02;;;;;;;5.03;3.45;;;24.80;92.50;;;;;;5054681;28;20029;-68
2021/03/23 09:14:30;;;;;;;5.82;3.47;;;24.00;93.90;;;;;;5053036;28;20424;-70
2021/03/23 09:16:59;;;;;;;6.82;3.00;;;23.40;94.10;;;;;;5054329;28;20024;-68
2021/03/23 09:19:44;;;;;;;6.53;3.47;;;23.90;93.70;;;;;;5053685;28;20100;-67
2021/03/23 09:22:10;;;;;;;7.07;3.40;;;24.60;93.10;;;;;;5054649;28;20499;-69
2021/03/23 09:24:38;;;;;;;6.85;3.47;;;24.20;94.60;;;;;;5054288;28;20041;-68
2021/03/23 09:27:23;;;;;;;5.60;3.28;;;23.50;94.90;;;;;;5054412;28;20021;-69
2021/03/23 09:29:50;;;;;;;6.85;3.45;;;23.90;94.20;;;;;;5053831;28;20563;-68
2021/03/23 09:32:19;;;;;;;7.95;3.15;;;24.60;93.50;;;;;;5054187;28;20021;-68
2021/03/23 09:35:17;;;;;;;5.93;3.17;;;24.00;95.30;;;;;;5053766;28;20119;-68
2021/03/23 09:37:46;;;;;;;6.78;3.40;;;23.50;95.10;;;;;;5053770;28;20017;-65
2021/03/23 09:40:18;;;;;;;5.25;3.42;;;24.20;94.40;;;;;;5054217;28;20099;-70
2021/03/23 09:42:53;;;;;;;7.47;3.40;;;24.00;94.90;;;;;;5053609;28;20083;-68
2021/03/23 09:45:52;;;;;;;6.63;3.25;;;23.40;95.80;;;;;;5053583;28;20033;-70
2021/03/23 09:48:57;;;;;;;7.18;3.30;;;22.90;96.40;;;;;;5052819;28;20481;-70
2021/03/23 09:51:22;;;;;;;7.13;3.75;;;22.50;96.90;;;;;;5053789;28;20056;-69
2021/03/23 09:53:51;;;;;;;5.32;3.63;;;22.30;97.20;;;;;;5054010;28;20445;-68
2021/03/23 09:56:24;;;;;;;5.32;3.95;;;22.10;97.40;;;;;;5053044;28;20078;-68
2021/03/23 09:59:12;;;;;;;6.05;3.88;;;22.00;97.70;;;;;;5052877;28;20040;-69
2021/03/23 10:01:58;;;;;;;7.40;3.95;;;21.90;97.80;;;;;;5044681;28;20489;-68
2021/03/23 10:04:37;;;;;;;6.35;3.95;;;21.80;97.90;;;;;;5053505;28;20037;-68
2021/03/23 10:07:04;;;;;;;6.35;4.28;;;21.70;98.10;;;;;;5038281;28;20441;-74
2021/03/23 10:09:36;;;;;;;9.10;3.83;;;21.70;98.20;;;;;;5053151;28;20039;-68
2021/03/23 10:12:03;;;;;;;6.35;3.95;;;21.70;98.30;;;;;;5053213;28;20029;-73
2021/03/23 10:14:28;;;;;;;5.75;3.65;;;22.10;97.80;;;;;;5053655;28;20017;-74
2021/03/23 10:17:08;;;;;;;6.65;3.85;;;22.10;98.10;;;;;;5053241;28;20028;-72
2021/03/23 10:19:45;;;;;;;7.90;4.50;;;22.00;98.10;;;;;;5053004;28;20790;-73
2021/03/23 10:22:14;;;;;;;6.07;3.75;;;21.90;97.90;;;;;;5053036;28;20048;-70
2021/03/23 10:24:41;;;;;;;6.15;4.10;;;21.80;98.30;;;;;;5052811;28;20041;-70
2021/03/23 10:27:20;;;;;;;5.60;4.05;;;21.70;98.40;;;;;;5052842;28;20025;-64
2021/03/23 10:30:06;;;;;;;9.00;4.18;;;21.70;98.70;;;;;;5052780;28;20431;-65
2021/03/23 10:32:52;;;;;;;4.75;3.50;;;21.70;98.70;;;;;;5052508;28;20021;-70
2021/03/23 10:35:27;;;;;;;9.30;4.65;;;21.60;98.80;;;;;;5052994;28;20020;-73
2021/03/23 10:38:26;;;;;;;6.40;3.63;;;21.60;98.90;;;;;;5052953;28;20020;-73
2021/03/23 10:40:54;;;;;;;5.85;3.72;;;22.10;98.70;;;;;;5052962;28;20392;-70
2021/03/23 10:43:42;;;;;;;7.53;4.03;;;22.10;98.70;;;;;;5052780;28;20108;-68
2021/03/23 10:46:26;;;;;;;6.88;4.30;;;21.90;98.50;;;;;;5052872;28;20478;-69
2021/03/23 10:48:52;;;;;;;;;;;21.80;98.30;;;;;;5053171;28;20123;-73
2021/03/23 10:51:28;;;;;;;6.75;4.20;;;21.80;98.60;;;;;;5052355;28;20425;-73
2021/03/23 10:54:25;;;;;;;6.07;3.78;;;21.70;98.40;;;;;;5051433;28;20425;-69
2021/03/23 10:56:57;;;;;;;6.28;3.72;;;21.70;98.50;;;;;;5047152;28;20060;-71
2021/03/23 10:59:25;;;;;;;7.28;4.10;;;21.70;98.50;;;;;;5052755;28;20021;-69
2021/03/23 11:02:05;;;;;;;11.52;4.13;;;21.80;98.60;;;;;;5052605;28;20023;-70
2021/03/23 11:04:35;;;;;;;8.10;3.75;;;21.80;98.80;;;;;;5052345;28;20028;-73
2021/03/23 11:07:22;;;;;;;7.03;3.70;;;21.80;98.70;;;;;;5052459;28;20020;-72
2021/03/23 11:09:52;;;;;;;6.10;3.10;;;22.20;98.50;;;;;;5052474;28;20104;-70
2021/03/23 11:12:18;;;;;;;5.70;3.70;;;22.20;98.50;;;;;;5052625;28;20021;-67
2021/03/23 11:14:44;;;;;;;7.35;3.38;;;22.10;98.80;;;;;;5052521;28;20048;-70
2021/03/23 11:17:13;;;;;;;7.05;3.30;;;22.10;99.00;;;;;;5052292;28;20021;-68
2021/03/23 11:19:42;;;;;;;6.43;3.20;;;22.00;99.10;;;;;;5052207;28;20036;-69
2021/03/23 11:22:15;;;;;;;5.85;3.35;;;22.00;99.20;;;;;;5052061;28;20477;-70
2021/03/23 11:24:41;;;;;;;6.43;3.40;;;22.00;99.20;;;;;;5052023;28;20037;-69
2021/03/23 11:27:07;;;;;;;5.30;3.13;;;22.00;99.30;;;;;;5052129;28;20101;-71
2021/03/23 11:29:33;;;;;;;5.53;2.97;;;22.00;99.30;;;;;;5050750;28;20469;-73
2021/03/23 11:31:59;;;;;;;7.30;3.08;;;22.00;99.40;;;;;;5050113;28;20381;-66
2021/03/23 11:34:24;;;;;;;5.32;3.22;;;22.00;99.70;;;;;;5050922;28;20048;-71
2021/03/23 11:36:51;;;;;;;7.72;3.47;;;22.00;99.60;;;;;;5051472;28;20029;-69
2021/03/23 11:39:18;;;;;;;4.70;3.10;;;22.10;99.80;;;;;;5051544;28;20021;-69
2021/03/23 11:41:59;;;;;;;8.18;2.97;;;22.00;99.30;;;;;;5051686;28;20100;-68
2021/03/23 11:44:31;;;;;;;7.93;3.08;;;22.20;98.40;;;;;;5051175;28;20095;-68
2021/03/23 11:47:10;;;;;;;7.03;3.30;;;22.20;97.80;;;;;;5050922;28;20083;-68
2021/03/23 11:49:50;;;;;;;6.05;2.88;;;21.90;96.80;;;;;;5050231;28;20029;-70
2021/03/23 11:52:16;;;;;;;4.85;3.20;;;21.70;95.40;;;;;;5050631;28;20021;-71
2021/03/23 11:54:42;;;;;;;5.57;3.00;;;21.50;94.30;;;;;;5051086;28;20029;-69
2021/03/23 11:57:09;;;;;;;7.47;3.95;;;21.40;94.30;;;;;;5051724;28;20362;-74
2021/03/23 11:59:34;;;;;;;10.98;6.90;;;21.20;93.60;;;;;;5051780;28;20108;-67
2021/03/23 12:02:00;;;;;;;14.02;8.48;;;20.60;92.70;;;;;;5051681;28;20105;-64
2021/03/23 12:04:26;;;;;;;14.85;9.48;;;20.20;92.20;;;;;;5053158;28;20029;-64
2021/03/23 12:07:17;;;;;;;17.00;10.05;;;19.90;91.60;;;;;;5055921;28;20082;-66
2021/03/23 12:09:55;;;;;;;18.23;10.52;;;19.80;91.50;;;;;;5055845;28;20385;-70
2021/03/23 12:12:24;;;;;;;17.25;11.05;;;19.70;91.30;;;;;;5052333;28;20096;-69
2021/03/23 12:15:03;;;;;;;18.08;10.98;;;19.70;91.30;;;;;;5054212;28;20033;-71
2021/03/23 12:17:34;;;;;;;16.90;11.48;;;19.60;90.90;;;;;;5053606;28;20104;-70
2021/03/23 12:20:08;;;;;;;18.40;11.40;;;19.50;91.10;;;;;;5052200;28;20112;-67
2021/03/23 12:22:34;;;;;;;18.88;12.05;;;19.40;90.80;;;;;;5054275;28;20060;-69
2021/03/23 12:25:00;;;;;;;16.15;11.73;;;19.30;90.60;;;;;;5054090;28;20032;-67
2021/03/23 12:27:26;;;;;;;17.05;10.63;;;19.30;90.80;;;;;;5054644;28;20095;-66
2021/03/23 12:29:51;;;;;;;18.48;10.20;;;19.20;90.90;;;;;;5053184;28;20052;-62
2021/03/23 12:32:18;;;;;;;15.90;11.25;;;19.20;91.10;;;;;;5054331;28;20052;-62
2021/03/23 12:34:45;;;;;;;18.55;11.45;;;19.20;91.10;;;;;;5054129;28;20052;-62
2021/03/23 12:37:13;;;;;;;17.55;11.57;;;19.10;91.20;;;;;;5054911;28;20139;-62
2021/03/23 12:39:38;;;;;;;18.08;11.73;;;19.10;91.30;;;;;;5055196;28;20047;-62
2021/03/23 12:42:05;;;;;;;17.38;11.07;;;19.10;91.20;;;;;;5054714;28;20130;-65
2021/03/23 12:44:31;;;;;;;16.80;11.68;;;19.10;91.20;;;;;;5054492;28;20045;-63
2021/03/23 12:46:57;;;;;;;16.63;12.18;;;19.00;91.20;;;;;;5055051;28;20071;-66
2021/03/23 12:49:23;;;;;;;16.73;12.23;;;18.90;90.70;;;;;;5053792;28;20120;-68
2021/03/23 12:52:00;;;;;;;19.48;12.50;;;18.80;90.90;;;;;;5055133;28;20082;-65
2021/03/23 12:54:42;;;;;;;26.67;13.88;;;18.70;92.10;;;;;;5055006;28;20491;-64
2021/03/23 12:57:38;;;;;;;20.95;13.45;;;18.80;92.80;;;;;;5054717;28;20052;-63
2021/03/23 13:00:11;;;;;;;20.85;13.68;;;18.60;91.90;;;;;;5051559;28;20499;-66
2021/03/23 13:02:37;;;;;;;20.60;13.52;;;18.50;91.70;;;;;;5054855;28;20025;-63
2021/03/23 13:05:04;;;;;;;19.48;13.57;;;18.50;91.50;;;;;;5054762;28;20523;-63
2021/03/23 13:07:34;;;;;;;21.25;13.48;;;18.40;91.40;;;;;;5054912;28;20477;-66